KBRG/BRG METAR and TAF weather

Enter ICAO airport designator
Station Type Date Time Source
KBRG METAR 2019/01/21 21:55 UTC NOAA

KBRG 212155Z AUTO 21021G29KT 10SM CLR 17/M10 A2960 RMK AO2 T01741105


Station Type Date Time Source
KBRG Decoded METAR 2019/01/21 21:55 UTC NOAA

Station name not available
Jan 21, 2019 - 04:55 PM EST / 2019.01.21 2155 UTC
Wind: from the SSW (210 degrees) at 24 MPH (21 KT) gusting to 33 MPH (29 KT):0
Visibility: 10 mile(s):0
Sky conditions: clear
Temperature: 63.3 F (17.4 C)
Dew Point: 13.1 F (-10.5 C)
Relative Humidity: 13%
Pressure (altimeter): 29.6 in. Hg (1002 hPa)
ob: KBRG 212155Z AUTO 21021G29KT 10SM CLR 17/M10 A2960 RMK AO2 T01741105
cycle: 22

Station Type Date Time Source
KBRG TAF 2012/07/03 12:12 UTC NOAA

TAF SKBRG 031000Z 031212 VRB02KT 9999 FEW017 SCT080
TEMPO 0312/0317 11005KT VCTS - DZRAFEW015CB BKN070
TEMPO 0318/0323 TSRA FEW017CB BKN070
TEMPO 0400/0402 VCTS FEW020CB
TEMPO 0402/0406 -DZ SCT015CB
TEMPO 0408/0412 00000KT 5000 BCFG FEW005 TX23/0319Z TN10/0411Z


Example: see airport list